Time;durP1;ratioP1;P1;durP2;ratioP2;P2;SDS_P1;SDS_P2;PMS_P1;PMS_P2;Temp;Humidity;BMP_temperature;BMP_pressure;BME280_temperature;BME280_humidity;BME280_pressure;Samples;Min_cycle;Max_cycle;Signal;HPM_P1;HPM_P2
2022/01/16 00:00:26;;;;;;;37.78;23.38;;;;;;;;;;5119310;28;20234;-68
2022/01/16 00:05:37;;;;;;;39.90;22.73;;;;;;;;;;5119127;28;20221;-66
2022/01/16 00:08:04;;;;;;;35.92;22.33;;;;;;;;;;5130142;27;20202;-66
2022/01/16 00:10:30;;;;;;;39.35;23.90;;;;;;;;;;5139959;27;20205;-67
2022/01/16 00:12:59;;;;;;;48.15;25.65;;;;;;;;;;5139928;27;20444;-66
2022/01/16 00:15:26;;;;;;;45.65;24.63;;;;;;;;;;5139257;27;20213;-66
2022/01/16 00:17:56;;;;;;;43.05;24.33;;;;;;;;;;5139197;27;20206;-66
2022/01/16 00:20:23;;;;;;;37.13;23.58;;;;;;;;;;5139723;27;20522;-66
2022/01/16 00:22:51;;;;;;;38.33;24.02;;;;;;;;;;5139545;27;20209;-65
2022/01/16 00:25:17;;;;;;;46.28;25.30;;;;;;;;;;5139118;27;20213;-66
2022/01/16 00:27:44;;;;;;;39.63;24.05;;;;;;;;;;5139155;27;20207;-65
2022/01/16 00:30:11;;;;;;;45.05;25.27;;;;;;;;;;5139574;27;20206;-66
2022/01/16 00:32:38;;;;;;;43.63;24.67;;;;;;;;;;5139496;27;20419;-65
2022/01/16 00:35:06;;;;;;;50.33;26.00;;;;;;;;;;5139503;27;20206;-65
2022/01/16 00:37:32;;;;;;;51.35;25.80;;;;;;;;;;5138640;27;20214;-65
2022/01/16 00:40:00;;;;;;;53.35;25.83;;;;;;;;;;5139176;27;20207;-65
2022/01/16 00:42:27;;;;;;;50.20;25.13;;;;;;;;;;5139077;27;20197;-65
2022/01/16 00:44:53;;;;;;;49.53;25.90;;;;;;;;;;5139826;27;20478;-67
2022/01/16 00:47:19;;;;;;;47.35;24.50;;;;;;;;;;5138859;27;20206;-68
2022/01/16 00:49:46;;;;;;;47.45;24.45;;;;;;;;;;5138662;27;20221;-65
2022/01/16 00:52:12;;;;;;;48.05;23.40;;;;;;;;;;5138980;27;20591;-65
2022/01/16 00:54:38;;;;;;;49.17;23.05;;;;;;;;;;5138478;27;20206;-65
2022/01/16 00:57:06;;;;;;;47.35;23.88;;;;;;;;;;5138824;27;20206;-67
2022/01/16 00:59:33;;;;;;;49.55;24.02;;;;;;;;;;5138668;27;20229;-65
2022/01/16 01:02:00;;;;;;;46.95;21.85;;;;;;;;;;5138843;27;20234;-65
2022/01/16 01:04:27;;;;;;;44.00;21.80;;;;;;;;;;5138875;27;20509;-65
2022/01/16 01:06:53;;;;;;;52.42;22.88;;;;;;;;;;5141499;27;20443;-67
2022/01/16 01:09:20;;;;;;;45.88;23.42;;;;;;;;;;5142496;27;20598;-67
2022/01/16 01:11:49;;;;;;;45.58;22.70;;;;;;;;;;5142188;27;20205;-67
2022/01/16 01:14:24;;;;;;;50.63;22.77;;;;;;;;;;5141755;27;20432;-67
2022/01/16 01:16:52;;;;;;;49.28;23.83;;;;;;;;;;5141507;27;20282;-67
2022/01/16 01:19:19;;;;;;;43.80;22.70;;;;;;;;;;5140704;27;20214;-67
2022/01/16 01:21:46;;;;;;;45.92;24.00;;;;;;;;;;5141869;27;20254;-67
2022/01/16 01:24:13;;;;;;;50.88;24.08;;;;;;;;;;5142192;27;20210;-67
2022/01/16 01:26:48;;;;;;;48.03;23.02;;;;;;;;;;5141356;27;20202;-67
2022/01/16 01:29:18;;;;;;;52.78;23.45;;;;;;;;;;5142250;27;20224;-67
2022/01/16 01:31:45;;;;;;;50.05;23.60;;;;;;;;;;5141936;27;20206;-67
2022/01/16 01:34:12;;;;;;;44.05;21.00;;;;;;;;;;5141988;27;20222;-67
2022/01/16 01:36:38;;;;;;;42.15;22.05;;;;;;;;;;5141508;27;20258;-68
2022/01/16 01:39:05;;;;;;;44.55;22.10;;;;;;;;;;5140864;27;20229;-66
2022/01/16 01:41:31;;;;;;;48.40;23.45;;;;;;;;;;5138201;27;20207;-66
2022/01/16 01:52:11;;;;;;;44.10;22.75;;;;;;;;;;5138039;27;20417;-68
2022/01/16 01:54:37;;;;;;;55.40;24.45;;;;;;;;;;5137616;27;20213;-66
2022/01/16 01:57:03;;;;;;;48.65;22.67;;;;;;;;;;5137553;27;20229;-66
2022/01/16 01:59:30;;;;;;;64.72;24.73;;;;;;;;;;5137798;27;20404;-66
2022/01/16 02:01:56;;;;;;;53.05;24.33;;;;;;;;;;5143098;27;20214;-68
2022/01/16 02:04:23;;;;;;;49.42;24.35;;;;;;;;;;5142545;27;20209;-68
2022/01/16 02:06:50;;;;;;;45.10;23.35;;;;;;;;;;5138761;27;20327;-66
2022/01/16 02:09:17;;;;;;;45.17;23.30;;;;;;;;;;5137327;28;20206;-66
2022/01/16 02:11:44;;;;;;;50.95;25.48;;;;;;;;;;5120331;28;20212;-68
2022/01/16 02:14:15;;;;;;;44.15;22.98;;;;;;;;;;5116933;28;20230;-68
2022/01/16 02:28:05;;;;;;;38.92;18.92;;;;;;;;;;5116671;28;20209;-68
2022/01/16 02:36:04;;;;;;;41.30;20.92;;;;;;;;;;5120847;28;20270;-68
2022/01/16 02:38:32;;;;;;;49.58;22.83;;;;;;;;;;5120585;28;20440;-68
2022/01/16 02:41:02;;;;;;;47.53;23.83;;;;;;;;;;5121089;28;20408;-68
2022/01/16 02:43:32;;;;;;;43.75;22.52;;;;;;;;;;5121279;28;20400;-68
2022/01/16 02:46:35;;;;;;;45.42;22.35;;;;;;;;;;5120822;28;20438;-68
2022/01/16 02:48:56;;;;;;;64.65;23.10;;;;;;;;;;5120514;28;20555;-68
2022/01/16 02:51:23;;;;;;;45.30;22.60;;;;;;;;;;5121070;28;20203;-68
2022/01/16 02:53:51;;;;;;;47.60;23.67;;;;;;;;;;5120995;28;20400;-68
2022/01/16 02:56:18;;;;;;;45.50;22.25;;;;;;;;;;5120356;28;20210;-68
2022/01/16 02:58:45;;;;;;;43.17;21.98;;;;;;;;;;5120006;28;20416;-68
2022/01/16 03:01:12;;;;;;;45.25;22.65;;;;;;;;;;5120669;28;20279;-68
2022/01/16 03:03:38;;;;;;;42.20;22.30;;;;;;;;;;5120445;28;20558;-69
2022/01/16 03:06:08;;;;;;;46.70;22.40;;;;;;;;;;5119938;28;20207;-68
2022/01/16 03:08:34;;;;;;;46.85;23.00;;;;;;;;;;5120075;28;20211;-68
2022/01/16 03:11:13;;;;;;;51.95;22.40;;;;;;;;;;5126865;27;20206;-68
2022/01/16 03:13:41;;;;;;;46.80;22.33;;;;;;;;;;5147004;27;20210;-68
2022/01/16 03:16:07;;;;;;;45.92;22.00;;;;;;;;;;5147062;27;20207;-68
2022/01/16 03:24:03;;;;;;;48.28;22.38;;;;;;;;;;5146381;27;20255;-68
2022/01/16 03:26:31;;;;;;;43.85;22.10;;;;;;;;;;5145713;27;20237;-66
2022/01/16 03:28:57;;;;;;;46.63;22.23;;;;;;;;;;5139791;27;20221;-66
2022/01/16 03:31:24;;;;;;;42.97;22.33;;;;;;;;;;5140623;27;20213;-66
2022/01/16 03:33:50;;;;;;;53.72;22.63;;;;;;;;;;5140306;27;20226;-66
2022/01/16 03:36:16;;;;;;;43.72;21.95;;;;;;;;;;5139996;27;20563;-66
2022/01/16 03:38:43;;;;;;;49.22;21.70;;;;;;;;;;5139548;27;20206;-66
2022/01/16 03:41:09;;;;;;;41.95;21.08;;;;;;;;;;5120007;28;20412;-66
2022/01/16 03:43:37;;;;;;;46.88;23.13;;;;;;;;;;5119661;28;20203;-66
2022/01/16 03:46:03;;;;;;;40.92;21.30;;;;;;;;;;5119411;28;20230;-66
2022/01/16 03:48:30;;;;;;;38.50;20.23;;;;;;;;;;5119103;28;20264;-66
2022/01/16 03:50:57;;;;;;;44.22;22.83;;;;;;;;;;5119563;28;20214;-66
2022/01/16 03:53:23;;;;;;;41.38;20.83;;;;;;;;;;5119615;28;20215;-66
2022/01/16 03:55:49;;;;;;;42.22;21.27;;;;;;;;;;5119602;28;20511;-66
2022/01/16 03:58:16;;;;;;;48.17;21.27;;;;;;;;;;5119051;28;20400;-66
2022/01/16 04:00:44;;;;;;;40.08;20.45;;;;;;;;;;5119425;28;20214;-66
2022/01/16 04:03:11;;;;;;;43.78;20.80;;;;;;;;;;5119352;27;20260;-66
2022/01/16 04:05:37;;;;;;;41.53;21.67;;;;;;;;;;5119257;28;20507;-66
2022/01/16 04:08:04;;;;;;;40.72;20.77;;;;;;;;;;5122060;28;20209;-68
2022/01/16 04:10:31;;;;;;;45.35;21.25;;;;;;;;;;5123296;27;20214;-68
2022/01/16 04:12:57;;;;;;;41.20;20.38;;;;;;;;;;5139730;27;20206;-65
2022/01/16 04:15:33;;;;;;;40.28;21.27;;;;;;;;;;5139592;27;20513;-65
2022/01/16 04:18:17;;;;;;;47.80;21.30;;;;;;;;;;5139539;27;20206;-68
2022/01/16 04:20:43;;;;;;;41.47;21.77;;;;;;;;;;5135514;27;20217;-68
2022/01/16 04:23:11;;;;;;;41.13;21.08;;;;;;;;;;5139989;27;20221;-68
2022/01/16 04:25:37;;;;;;;47.72;21.40;;;;;;;;;;5139360;27;20277;-68
2022/01/16 04:28:04;;;;;;;39.60;21.30;;;;;;;;;;5139327;27;20374;-68
2022/01/16 04:30:31;;;;;;;40.75;20.85;;;;;;;;;;5139441;27;20214;-68
2022/01/16 04:32:57;;;;;;;37.78;20.55;;;;;;;;;;5139603;27;20401;-68
2022/01/16 04:35:25;;;;;;;36.60;21.00;;;;;;;;;;5139323;27;20214;-68
2022/01/16 04:37:51;;;;;;;39.70;20.60;;;;;;;;;;5139280;27;20206;-68
2022/01/16 04:40:18;;;;;;;31.38;18.98;;;;;;;;;;5139437;27;20207;-68
2022/01/16 04:45:29;;;;;;;33.65;19.40;;;;;;;;;;5118591;28;20283;-67
2022/01/16 04:47:55;;;;;;;33.42;19.60;;;;;;;;;;5118240;28;20230;-68
2022/01/16 04:50:25;;;;;;;37.53;20.25;;;;;;;;;;5118215;28;20467;-68
2022/01/16 04:52:52;;;;;;;35.63;18.85;;;;;;;;;;5119244;28;20203;-68
2022/01/16 04:55:19;;;;;;;37.63;19.88;;;;;;;;;;5120079;28;20231;-66
2022/01/16 04:57:45;;;;;;;36.25;18.65;;;;;;;;;;5118206;28;20252;-66
2022/01/16 05:00:13;;;;;;;31.20;18.85;;;;;;;;;;5118774;28;20207;-68
2022/01/16 05:02:39;;;;;;;33.05;17.92;;;;;;;;;;5118185;28;20203;-68
2022/01/16 05:05:06;;;;;;;31.90;18.17;;;;;;;;;;5118275;28;20203;-66
2022/01/16 05:07:32;;;;;;;31.85;18.00;;;;;;;;;;5117762;28;20214;-66
2022/01/16 05:10:00;;;;;;;35.95;19.00;;;;;;;;;;5118027;28;20229;-66
2022/01/16 05:12:32;;;;;;;30.77;18.05;;;;;;;;;;5136171;27;20275;-65
2022/01/16 05:17:43;;;;;;;32.80;18.13;;;;;;;;;;5138559;27;20235;-66
2022/01/16 05:20:10;;;;;;;32.70;19.02;;;;;;;;;;5142815;27;20211;-66
2022/01/16 05:22:37;;;;;;;32.92;19.42;;;;;;;;;;5145147;27;20549;-66
2022/01/16 05:25:07;;;;;;;29.42;18.10;;;;;;;;;;5144507;27;20431;-68
2022/01/16 05:27:33;;;;;;;31.75;19.42;;;;;;;;;;5144281;27;20202;-66
2022/01/16 05:29:59;;;;;;;31.67;17.85;;;;;;;;;;5139618;27;20229;-64
2022/01/16 05:32:26;;;;;;;30.30;17.10;;;;;;;;;;5138328;27;20213;-64
2022/01/16 05:34:52;;;;;;;28.38;17.73;;;;;;;;;;5137801;27;20226;-65
2022/01/16 05:37:19;;;;;;;33.47;17.75;;;;;;;;;;5137308;27;20411;-66
2022/01/16 05:39:47;;;;;;;29.58;17.90;;;;;;;;;;5137714;27;20202;-65
2022/01/16 05:42:15;;;;;;;29.48;17.70;;;;;;;;;;5137988;27;20206;-67
2022/01/16 05:44:41;;;;;;;28.45;17.67;;;;;;;;;;5137983;27;20538;-67
2022/01/16 05:47:12;;;;;;;31.52;17.65;;;;;;;;;;5137819;27;20530;-67
2022/01/16 05:49:39;;;;;;;27.92;17.48;;;;;;;;;;5138079;27;20421;-65
2022/01/16 05:52:06;;;;;;;30.15;17.85;;;;;;;;;;5137825;27;21237;-65
2022/01/16 05:54:33;;;;;;;30.50;18.38;;;;;;;;;;5137967;27;20221;-65
2022/01/16 05:56:59;;;;;;;29.30;17.40;;;;;;;;;;5137921;27;20213;-65
2022/01/16 05:59:27;;;;;;;30.23;17.80;;;;;;;;;;5137543;27;20206;-65
2022/01/16 06:01:54;;;;;;;32.67;17.80;;;;;;;;;;5137852;27;20229;-65
2022/01/16 06:04:20;;;;;;;28.30;17.52;;;;;;;;;;5137648;27;20209;-65
2022/01/16 06:06:46;;;;;;;27.80;17.10;;;;;;;;;;5136461;27;20206;-67
2022/01/16 06:09:13;;;;;;;31.92;18.13;;;;;;;;;;5138162;28;20206;-67
2022/01/16 06:11:39;;;;;;;30.80;17.48;;;;;;;;;;5141581;28;20205;-67
2022/01/16 06:14:06;;;;;;;28.33;17.52;;;;;;;;;;5141815;28;20587;-65
2022/01/16 06:16:35;;;;;;;27.42;17.38;;;;;;;;;;5139470;28;20207;-67
2022/01/16 06:19:01;;;;;;;31.48;18.20;;;;;;;;;;5141907;28;20261;-67
2022/01/16 06:21:28;;;;;;;27.60;17.23;;;;;;;;;;5142264;28;20518;-67
2022/01/16 06:23:54;;;;;;;27.13;16.15;;;;;;;;;;5142430;28;20210;-67
2022/01/16 06:26:20;;;;;;;29.52;17.90;;;;;;;;;;5139959;28;20579;-65
2022/01/16 06:28:47;;;;;;;29.30;17.73;;;;;;;;;;5137322;28;20207;-65
2022/01/16 06:31:13;;;;;;;28.88;17.65;;;;;;;;;;5142104;28;20218;-67
2022/01/16 06:33:41;;;;;;;28.73;17.45;;;;;;;;;;5139687;28;20206;-68
2022/01/16 06:36:07;;;;;;;28.45;17.13;;;;;;;;;;5137437;28;20213;-67
2022/01/16 06:38:34;;;;;;;31.17;17.65;;;;;;;;;;5139903;28;20390;-67
2022/01/16 06:41:01;;;;;;;29.85;17.83;;;;;;;;;;5142817;28;20198;-67
2022/01/16 06:43:28;;;;;;;29.63;17.30;;;;;;;;;;5142900;28;20506;-67
2022/01/16 06:45:54;;;;;;;28.20;17.17;;;;;;;;;;5137498;28;20257;-68
2022/01/16 06:48:21;;;;;;;29.05;17.80;;;;;;;;;;5137103;28;20207;-67
2022/01/16 06:50:49;;;;;;;31.00;17.88;;;;;;;;;;5137517;28;20537;-70
2022/01/16 06:53:15;;;;;;;27.83;17.73;;;;;;;;;;5137032;28;20198;-70
2022/01/16 06:55:41;;;;;;;29.45;17.77;;;;;;;;;;5137597;28;20214;-70
2022/01/16 06:58:08;;;;;;;29.05;17.83;;;;;;;;;;5136727;28;20214;-70
2022/01/16 07:00:34;;;;;;;29.40;17.77;;;;;;;;;;5137222;28;20217;-70
2022/01/16 07:03:01;;;;;;;27.85;17.65;;;;;;;;;;5137632;28;20507;-70
2022/01/16 07:05:27;;;;;;;30.77;17.15;;;;;;;;;;5137073;28;20202;-70
2022/01/16 07:07:55;;;;;;;29.85;17.83;;;;;;;;;;5137111;28;20205;-69
2022/01/16 07:10:23;;;;;;;30.40;17.45;;;;;;;;;;5137078;28;20202;-69
2022/01/16 07:12:50;;;;;;;27.60;16.83;;;;;;;;;;5137171;28;20215;-68
2022/01/16 07:15:16;;;;;;;25.52;16.17;;;;;;;;;;5137071;28;20222;-69
2022/01/16 07:17:43;;;;;;;27.52;17.30;;;;;;;;;;5138855;27;20206;-70
2022/01/16 07:20:10;;;;;;;27.20;16.35;;;;;;;;;;5140315;27;20214;-69
2022/01/16 07:22:36;;;;;;;25.75;17.30;;;;;;;;;;5140617;27;20207;-58
2022/01/16 07:25:04;;;;;;;25.05;16.63;;;;;;;;;;5140343;27;20202;-57
2022/01/16 07:27:31;;;;;;;27.65;15.90;;;;;;;;;;5140348;27;20213;-58
2022/01/16 07:29:58;;;;;;;24.92;16.13;;;;;;;;;;5140706;27;20206;-57
2022/01/16 07:32:25;;;;;;;26.38;16.92;;;;;;;;;;5140682;27;20209;-57
2022/01/16 07:34:51;;;;;;;24.92;15.50;;;;;;;;;;5140713;27;20222;-58
2022/01/16 07:37:17;;;;;;;28.73;16.80;;;;;;;;;;5140365;27;20206;-55
2022/01/16 07:39:44;;;;;;;26.17;16.88;;;;;;;;;;5146152;27;20213;-58
2022/01/16 07:42:12;;;;;;;26.25;17.45;;;;;;;;;;5146814;27;20206;-58
2022/01/16 07:44:38;;;;;;;27.15;16.83;;;;;;;;;;5144665;27;20225;-57
2022/01/16 07:47:05;;;;;;;27.23;17.50;;;;;;;;;;5140329;27;20521;-57
2022/01/16 07:49:31;;;;;;;25.17;16.52;;;;;;;;;;5139784;27;20214;-58
2022/01/16 07:51:58;;;;;;;24.73;16.33;;;;;;;;;;5139815;27;20213;-56
2022/01/16 07:54:24;;;;;;;33.30;19.00;;;;;;;;;;5139112;27;20230;-52
2022/01/16 07:56:50;;;;;;;28.52;17.80;;;;;;;;;;5139405;27;20749;-52
2022/01/16 07:59:18;;;;;;;30.70;18.33;;;;;;;;;;5139781;27;20206;-53
2022/01/16 08:01:47;;;;;;;30.15;18.27;;;;;;;;;;5140104;27;20206;-54
2022/01/16 08:04:14;;;;;;;28.15;17.27;;;;;;;;;;5140244;27;20557;-52
2022/01/16 08:06:40;;;;;;;29.98;17.92;;;;;;;;;;5139773;27;20583;-54
2022/01/16 08:09:07;;;;;;;33.28;18.42;;;;;;;;;;5139382;27;20206;-54
2022/01/16 08:11:33;;;;;;;30.83;17.88;;;;;;;;;;5139880;27;20206;-53
2022/01/16 08:14:00;;;;;;;28.20;17.70;;;;;;;;;;5140984;27;20206;-58
2022/01/16 08:16:28;;;;;;;31.75;19.67;;;;;;;;;;5144760;27;20213;-58
2022/01/16 08:18:55;;;;;;;33.08;19.88;;;;;;;;;;5144340;27;21125;-58
2022/01/16 08:21:21;;;;;;;29.58;19.40;;;;;;;;;;5141840;27;20221;-54
2022/01/16 08:23:48;;;;;;;31.05;18.98;;;;;;;;;;5141041;27;20538;-58
2022/01/16 08:26:14;;;;;;;31.05;19.08;;;;;;;;;;5144964;27;20198;-58
2022/01/16 08:28:41;;;;;;;31.27;18.90;;;;;;;;;;5143499;27;20198;-58
2022/01/16 08:31:07;;;;;;;32.70;20.58;;;;;;;;;;5142881;27;20283;-56
2022/01/16 08:33:35;;;;;;;32.72;19.55;;;;;;;;;;5139288;27;20206;-58
2022/01/16 08:36:01;;;;;;;31.23;18.80;;;;;;;;;;5139335;27;20226;-58
2022/01/16 08:38:30;;;;;;;29.30;18.88;;;;;;;;;;5139280;27;20437;-58
2022/01/16 08:40:56;;;;;;;28.25;18.38;;;;;;;;;;5139505;27;20583;-56
2022/01/16 08:43:24;;;;;;;32.10;19.17;;;;;;;;;;5139793;27;20198;-59
2022/01/16 08:45:51;;;;;;;26.40;18.00;;;;;;;;;;5138831;27;20880;-58
2022/01/16 08:48:20;;;;;;;31.80;20.05;;;;;;;;;;5138701;27;20206;-58
2022/01/16 08:50:48;;;;;;;27.70;18.58;;;;;;;;;;5138564;27;20236;-58
2022/01/16 08:53:14;;;;;;;29.80;19.27;;;;;;;;;;5138859;27;20265;-58
2022/01/16 08:55:41;;;;;;;30.40;18.55;;;;;;;;;;5138454;27;20232;-57
2022/01/16 08:58:07;;;;;;;29.92;19.23;;;;;;;;;;5138493;27;20206;-56
2022/01/16 09:00:34;;;;;;;28.70;18.30;;;;;;;;;;5138630;27;20286;-53
2022/01/16 09:03:00;;;;;;;29.10;18.05;;;;;;;;;;5138511;27;20458;-53
2022/01/16 09:05:27;;;;;;;28.92;18.55;;;;;;;;;;5139841;27;20545;-58
2022/01/16 09:07:55;;;;;;;34.22;21.73;;;;;;;;;;5143362;27;20206;-58
2022/01/16 09:10:22;;;;;;;31.00;19.65;;;;;;;;;;5139404;27;20210;-53
2022/01/16 09:12:49;;;;;;;31.48;19.20;;;;;;;;;;5138643;27;20206;-53
2022/01/16 09:15:15;;;;;;;29.13;19.15;;;;;;;;;;5138200;27;20444;-53
2022/01/16 09:17:42;;;;;;;32.17;19.52;;;;;;;;;;5138275;27;20415;-53
2022/01/16 09:20:09;;;;;;;29.98;19.00;;;;;;;;;;5138131;27;20510;-53
2022/01/16 09:22:39;;;;;;;32.70;19.17;;;;;;;;;;5138143;27;20213;-54
2022/01/16 09:25:08;;;;;;;31.58;19.73;;;;;;;;;;5138321;27;20203;-53
2022/01/16 09:27:34;;;;;;;30.45;19.20;;;;;;;;;;5138343;27;20205;-54
2022/01/16 09:30:00;;;;;;;35.50;21.13;;;;;;;;;;5138118;27;20234;-53
2022/01/16 09:32:27;;;;;;;32.53;21.05;;;;;;;;;;5138527;27;20205;-54
2022/01/16 09:34:53;;;;;;;31.48;19.20;;;;;;;;;;5138134;27;20233;-54
2022/01/16 09:37:20;;;;;;;30.80;19.60;;;;;;;;;;5138312;27;20202;-56
2022/01/16 09:39:46;;;;;;;32.33;20.00;;;;;;;;;;5127944;27;20218;-56
2022/01/16 09:42:14;;;;;;;29.85;19.10;;;;;;;;;;5117748;28;20207;-56
2022/01/16 09:44:41;;;;;;;30.35;19.13;;;;;;;;;;5117462;28;20478;-54
2022/01/16 09:47:09;;;;;;;29.30;19.40;;;;;;;;;;5117144;28;20207;-54
2022/01/16 09:49:35;;;;;;;28.65;18.50;;;;;;;;;;5118154;28;20271;-59
2022/01/16 09:52:02;;;;;;;29.83;18.80;;;;;;;;;;5121466;27;20380;-60
2022/01/16 09:54:29;;;;;;;31.60;20.08;;;;;;;;;;5118092;27;20229;-60
2022/01/16 09:56:56;;;;;;;30.80;19.60;;;;;;;;;;5110260;27;20215;-55
2022/01/16 09:59:23;;;;;;;29.17;19.35;;;;;;;;;;5118500;28;20218;-52
2022/01/16 10:01:50;;;;;;;32.95;20.15;;;;;;;;;;5123021;27;20209;-52
2022/01/16 10:04:29;;;;;;;31.40;20.23;;;;;;;;;;5137540;27;20411;-52
2022/01/16 10:06:56;;;;;;;30.55;19.58;;;;;;;;;;5138350;27;20199;-51
2022/01/16 10:09:23;;;;;;;30.15;19.63;;;;;;;;;;5112693;28;20213;-53
2022/01/16 10:11:55;;;;;;;30.75;19.08;;;;;;;;;;5116438;28;20206;-54
2022/01/16 10:14:27;;;;;;;30.77;19.13;;;;;;;;;;5128205;28;20269;-55
2022/01/16 10:16:54;;;;;;;33.03;20.20;;;;;;;;;;5137855;28;20226;-53
2022/01/16 10:19:21;;;;;;;35.67;21.17;;;;;;;;;;5137017;28;20213;-53
2022/01/16 10:21:49;;;;;;;28.95;19.95;;;;;;;;;;5138324;28;20212;-55
2022/01/16 10:24:16;;;;;;;30.40;19.63;;;;;;;;;;5137281;28;20213;-55
2022/01/16 10:26:43;;;;;;;30.75;20.02;;;;;;;;;;5137209;28;20202;-55
2022/01/16 10:29:14;;;;;;;31.77;20.58;;;;;;;;;;5124958;28;20222;-52
2022/01/16 10:31:42;;;;;;;32.83;20.23;;;;;;;;;;5119730;28;20202;-53
2022/01/16 10:34:23;;;;;;;29.10;19.95;;;;;;;;;;5119699;28;20210;-52
2022/01/16 10:36:49;;;;;;;31.00;19.10;;;;;;;;;;5119196;28;20583;-54
2022/01/16 10:39:16;;;;;;;33.47;21.23;;;;;;;;;;5119399;28;20210;-54
2022/01/16 10:41:42;;;;;;;31.40;20.02;;;;;;;;;;5119218;28;20210;-53
2022/01/16 10:44:25;;;;;;;30.17;19.85;;;;;;;;;;5119661;28;20214;-53
2022/01/16 10:46:53;;;;;;;31.85;21.23;;;;;;;;;;5119747;28;20369;-54
2022/01/16 10:49:22;;;;;;;30.73;19.00;;;;;;;;;;5119220;28;20530;-52
2022/01/16 10:52:05;;;;;;;28.35;19.65;;;;;;;;;;5120468;28;20198;-52
2022/01/16 10:54:32;;;;;;;33.00;20.88;;;;;;;;;;5123681;28;20514;-54
2022/01/16 10:56:59;;;;;;;33.60;20.23;;;;;;;;;;5123944;28;20214;-54
2022/01/16 10:59:25;;;;;;;33.20;20.73;;;;;;;;;;5123875;28;20203;-54
2022/01/16 11:02:08;;;;;;;30.88;20.45;;;;;;;;;;5124230;27;20207;-54
2022/01/16 11:04:35;;;;;;;28.95;20.10;;;;;;;;;;5143590;27;20520;-53
2022/01/16 11:07:01;;;;;;;35.00;21.65;;;;;;;;;;5143192;27;20198;-54
2022/01/16 11:09:28;;;;;;;31.38;20.30;;;;;;;;;;5143723;27;20293;-53
2022/01/16 11:11:57;;;;;;;31.95;21.88;;;;;;;;;;5143691;27;20693;-53
2022/01/16 11:14:24;;;;;;;34.17;22.27;;;;;;;;;;5143110;27;20240;-52
2022/01/16 11:16:51;;;;;;;29.77;20.08;;;;;;;;;;5143233;27;20253;-54
2022/01/16 11:19:21;;;;;;;28.05;19.35;;;;;;;;;;5143138;27;20209;-54
2022/01/16 11:21:51;;;;;;;29.42;19.77;;;;;;;;;;5143366;27;20263;-52
2022/01/16 11:24:32;;;;;;;31.88;20.42;;;;;;;;;;5143250;27;20268;-52
2022/01/16 11:26:59;;;;;;;32.25;21.30;;;;;;;;;;5143007;27;20198;-54
2022/01/16 11:29:26;;;;;;;31.17;20.42;;;;;;;;;;5143038;27;20247;-54
2022/01/16 11:31:53;;;;;;;31.88;20.92;;;;;;;;;;5143448;27;20429;-53
2022/01/16 11:34:21;;;;;;;34.17;21.20;;;;;;;;;;5143036;27;20350;-53
2022/01/16 11:36:48;;;;;;;32.03;21.00;;;;;;;;;;5142970;27;20222;-54
2022/01/16 11:39:14;;;;;;;30.73;21.20;;;;;;;;;;5142840;27;20210;-54
2022/01/16 11:41:50;;;;;;;33.63;21.17;;;;;;;;;;5142628;27;20217;-55
2022/01/16 11:44:23;;;;;;;31.77;20.92;;;;;;;;;;5142706;27;20209;-53
2022/01/16 11:46:50;;;;;;;32.90;21.35;;;;;;;;;;5142722;27;20392;-55
2022/01/16 11:49:19;;;;;;;31.58;19.92;;;;;;;;;;5142330;27;20397;-54
2022/01/16 11:52:03;;;;;;;30.60;21.35;;;;;;;;;;5142342;27;20202;-55
2022/01/16 11:54:30;;;;;;;32.63;21.63;;;;;;;;;;5140727;27;20537;-53
2022/01/16 11:57:07;;;;;;;34.55;21.77;;;;;;;;;;5139774;27;20218;-53
2022/01/16 11:59:38;;;;;;;32.83;21.33;;;;;;;;;;5139453;27;20205;-53
2022/01/16 12:02:17;;;;;;;36.13;21.67;;;;;;;;;;5139140;27;20229;-55
2022/01/16 12:04:54;;;;;;;35.33;22.27;;;;;;;;;;5139240;27;20462;-55
2022/01/16 12:07:45;;;;;;;33.80;20.88;;;;;;;;;;5139743;27;20198;-54
2022/01/16 12:10:13;;;;;;;36.30;22.10;;;;;;;;;;5138927;27;20244;-56
2022/01/16 12:12:39;;;;;;;35.22;23.77;;;;;;;;;;5139440;27;20205;-55
2022/01/16 12:15:07;;;;;;;39.15;24.80;;;;;;;;;;5138810;27;20286;-54
2022/01/16 12:17:34;;;;;;;41.38;24.38;;;;;;;;;;5139166;27;20576;-54
2022/01/16 12:20:21;;;;;;;39.70;24.38;;;;;;;;;;5138812;27;20253;-56
2022/01/16 12:22:49;;;;;;;36.65;23.85;;;;;;;;;;5139400;27;20410;-53
2022/01/16 12:25:20;;;;;;;41.45;25.35;;;;;;;;;;5138267;27;20539;-54
2022/01/16 12:27:47;;;;;;;34.20;23.17;;;;;;;;;;5139025;27;20207;-54
2022/01/16 12:30:25;;;;;;;39.45;24.52;;;;;;;;;;5143102;27;20395;-54
2022/01/16 12:32:52;;;;;;;41.28;24.65;;;;;;;;;;5144620;27;20194;-56
2022/01/16 12:35:37;;;;;;;43.63;24.23;;;;;;;;;;5144282;27;20194;-53
2022/01/16 12:38:05;;;;;;;41.78;24.13;;;;;;;;;;5145272;27;20497;-54
2022/01/16 12:40:33;;;;;;;37.42;24.27;;;;;;;;;;5143855;27;20386;-54
2022/01/16 12:43:01;;;;;;;38.13;23.85;;;;;;;;;;5145204;27;20522;-54
2022/01/16 12:45:29;;;;;;;38.65;23.13;;;;;;;;;;5144386;27;20285;-54
2022/01/16 12:47:57;;;;;;;37.72;22.75;;;;;;;;;;5145024;27;20491;-54
2022/01/16 12:50:23;;;;;;;40.17;23.73;;;;;;;;;;5144739;27;20229;-54
2022/01/16 12:52:50;;;;;;;42.42;24.30;;;;;;;;;;5144986;27;20202;-53
2022/01/16 12:55:16;;;;;;;40.60;23.02;;;;;;;;;;5144266;27;20201;-54
2022/01/16 12:57:44;;;;;;;38.65;23.50;;;;;;;;;;5144697;27;20222;-54
2022/01/16 13:00:10;;;;;;;38.03;23.42;;;;;;;;;;5144705;27;20186;-55
2022/01/16 13:02:37;;;;;;;36.15;23.67;;;;;;;;;;5144253;27;20194;-55
2022/01/16 13:05:04;;;;;;;37.40;23.17;;;;;;;;;;5144027;27;20194;-54
2022/01/16 13:07:31;;;;;;;37.20;24.45;;;;;;;;;;5144365;27;20198;-54
2022/01/16 13:09:58;;;;;;;36.25;23.73;;;;;;;;;;5144286;27;20194;-54
2022/01/16 13:12:25;;;;;;;38.58;23.17;;;;;;;;;;5144363;27;20194;-55
2022/01/16 13:14:53;;;;;;;39.28;23.92;;;;;;;;;;5143453;27;20239;-54
2022/01/16 13:17:20;;;;;;;37.00;22.98;;;;;;;;;;5143973;27;20218;-55
2022/01/16 13:19:51;;;;;;;34.03;22.50;;;;;;;;;;5144068;27;20234;-55
2022/01/16 13:22:20;;;;;;;37.17;23.10;;;;;;;;;;5144317;27;20194;-55
2022/01/16 13:24:47;;;;;;;35.03;22.95;;;;;;;;;;5143661;27;20198;-55
2022/01/16 13:27:15;;;;;;;35.50;22.05;;;;;;;;;;5143837;27;20577;-54
2022/01/16 13:29:43;;;;;;;32.35;21.95;;;;;;;;;;5144067;27;20202;-54
2022/01/16 13:32:12;;;;;;;34.00;22.13;;;;;;;;;;5144261;27;20397;-54
2022/01/16 13:34:40;;;;;;;32.95;20.73;;;;;;;;;;5143863;27;20194;-54
2022/01/16 13:37:07;;;;;;;34.80;21.38;;;;;;;;;;5143482;27;20221;-53
2022/01/16 13:39:35;;;;;;;32.53;19.90;;;;;;;;;;5143550;27;20194;-54
2022/01/16 13:42:19;;;;;;;32.65;20.88;;;;;;;;;;5143554;27;20201;-55
2022/01/16 13:44:46;;;;;;;31.50;20.52;;;;;;;;;;5143487;27;20275;-54
2022/01/16 13:47:18;;;;;;;33.95;20.80;;;;;;;;;;5143729;27;20222;-55
2022/01/16 13:49:45;;;;;;;32.58;20.25;;;;;;;;;;5143970;27;20358;-54
2022/01/16 13:52:12;;;;;;;25.83;15.82;;;;;;;;;;5143499;27;20566;-56
2022/01/16 13:54:38;;;;;;;21.08;12.13;;;;;;;;;;5143268;27;20194;-54
2022/01/16 13:57:04;;;;;;;21.85;13.38;;;;;;;;;;5143521;27;20214;-55
2022/01/16 13:59:31;;;;;;;16.42;12.15;;;;;;;;;;5143509;27;20502;-54
2022/01/16 14:02:01;;;;;;;14.68;10.20;;;;;;;;;;5143659;27;20201;-56
2022/01/16 14:04:29;;;;;;;13.88;9.80;;;;;;;;;;5143059;27;20269;-53
2022/01/16 14:06:58;;;;;;;12.80;8.98;;;;;;;;;;5143112;27;20187;-54
2022/01/16 14:09:28;;;;;;;13.35;8.93;;;;;;;;;;5143719;27;20194;-54
2022/01/16 14:11:55;;;;;;;14.48;9.75;;;;;;;;;;5143227;27;20209;-53
2022/01/16 14:14:22;;;;;;;14.73;9.65;;;;;;;;;;5143239;27;20233;-55
2022/01/16 14:16:52;;;;;;;12.38;8.63;;;;;;;;;;5143190;28;20492;-53
2022/01/16 14:19:20;;;;;;;16.05;9.27;;;;;;;;;;5142923;28;20201;-54
2022/01/16 14:22:09;;;;;;;16.10;10.68;;;;;;;;;;5143049;28;20195;-53
2022/01/16 14:24:36;;;;;;;17.45;9.75;;;;;;;;;;5143081;28;20194;-54
2022/01/16 14:27:04;;;;;;;17.25;10.85;;;;;;;;;;5144218;27;20378;-53
2022/01/16 14:29:30;;;;;;;14.80;9.93;;;;;;;;;;5147431;27;20509;-53
2022/01/16 14:31:58;;;;;;;13.85;10.85;;;;;;;;;;5147617;27;20541;-52
2022/01/16 14:34:25;;;;;;;14.73;10.32;;;;;;;;;;5146897;27;20202;-52
2022/01/16 14:36:53;;;;;;;12.55;9.75;;;;;;;;;;5147074;27;20278;-52
2022/01/16 14:39:22;;;;;;;14.13;10.65;;;;;;;;;;5147017;27;20194;-52
2022/01/16 14:41:50;;;;;;;13.75;9.68;;;;;;;;;;5147150;27;20248;-52
2022/01/16 14:44:16;;;;;;;15.52;9.95;;;;;;;;;;5147224;27;20386;-53
2022/01/16 14:46:43;;;;;;;16.65;11.23;;;;;;;;;;5146894;27;20190;-52
2022/01/16 14:49:09;;;;;;;13.65;10.27;;;;;;;;;;5147140;27;20201;-53
2022/01/16 14:51:36;;;;;;;16.02;11.43;;;;;;;;;;5147086;27;20503;-53
2022/01/16 14:54:04;;;;;;;13.25;9.60;;;;;;;;;;5146869;27;20201;-55
2022/01/16 14:56:31;;;;;;;15.90;10.43;;;;;;;;;;5146373;27;20214;-54
2022/01/16 14:58:57;;;;;;;13.65;9.82;;;;;;;;;;5146710;27;20202;-54
2022/01/16 15:01:23;;;;;;;16.38;10.25;;;;;;;;;;5146754;27;20333;-56